La Gomera > WETTERSTATION Alajeró

AKTUELLE DATEN Online

Letztes Update am 22 minutos

15.8 ºC

Temperatur

82

Feuchtigkeit (%)

925.63

Druck (mb)

0

Niederschlag (mm)

15 SW

Wind (Km/h)

TÄGLICHE DATEN

Temperatur in den letzten 24 Stunden (ºC)

Luftfeuchtigkeit letzte 24 Stunden (%)

Atmosphärischer Druck in den letzten 24 Stunden últimas 24 horas (mb)

Niederschläge in den letzten 24 Stunden (mm)

Windböen in den letzten 24 Stunden (Km/h)

Stunde Temperatur (°C) ºC Niederschlag (mm) mm Druck (mb) mb Feuchtigkeit (%) % Wind (Km/h) km/h
28 - 10:00 16.3 0 925 78 11.8 SW
28 - 11:00 16.5 0 926 78 33.5 SW
28 - 12:00 17.3 0 926 70 24.3 N
28 - 13:00 17.4 0 926 73 17.2 SW
28 - 14:00 17.2 0 925 77 22.3 N
28 - 15:00 17.3 0 925 75 22.7 S
28 - 16:00 17.9 0 925 73 21.9 S
28 - 17:00 18.2 0 925 72 23.3 S
28 - 18:00 17 0 924 77 16.1 S
28 - 19:00 16.9 0 925 79 11.4 SW
28 - 20:00 16.1 0 925 83 10.7 SW
28 - 21:00 15.4 0 925 84 9.7 SW
28 - 22:00 15.3 0 926 86 9.8 S
28 - 23:00 15.1 0 926 87 9.6 SW
29 - 00:00 15.1 0 926 88 9.2 S
29 - 01:00 15.3 0 925 85 4.9 S
29 - 02:00 15 0 925 88 5.9 O
29 - 03:00 14.9 0 924 91 6.6 SW
29 - 04:00 14.7 0 924 91 7.2 SW
29 - 05:00 14.5 0 924 91 7.7 SW
29 - 06:00 14.4 0 924 90 15.4 W
29 - 07:00 14.9 0 925 82 6.5 SO
29 - 08:00 15.4 0 925 81 23.9 N
29 - 09:00 15.8 0 926 82 15 SW
29 - 10:00
Apalmet nutzt eigene Cookies sowie Cookies von Dritten um unsere Dienstleistungen zu verbessern Cookies.